createdAt,value
2017-11-15T00:03:11.704Z,16.93
2017-11-15T00:08:39.852Z,17.00
2017-11-15T00:14:29.736Z,17.20
2017-11-15T00:19:57.901Z,16.33
2017-11-15T00:25:34.239Z,15.47
2017-11-15T00:31:10.842Z,16.80
2017-11-15T00:36:39.628Z,15.23
2017-11-15T00:42:09.008Z,13.33
2017-11-15T00:47:40.960Z,15.37
2017-11-15T00:53:09.151Z,15.57
2017-11-15T00:58:39.872Z,15.23
2017-11-15T01:04:08.856Z,16.03
2017-11-15T01:09:40.048Z,13.90
2017-11-15T01:15:08.276Z,15.50
2017-11-15T01:20:36.429Z,14.87
2017-11-15T01:26:12.663Z,13.97
2017-11-15T01:31:40.956Z,15.70
2017-11-15T01:37:25.905Z,14.80
2017-11-15T01:42:54.996Z,17.07
2017-11-15T01:48:23.952Z,14.20
2017-11-15T01:53:52.859Z,14.77
2017-11-15T01:59:21.794Z,13.67
2017-11-15T02:04:50.715Z,17.93
2017-11-15T02:10:19.841Z,16.17
2017-11-15T02:15:50.016Z,16.10
2017-11-15T02:21:18.471Z,16.27
2017-11-15T02:26:47.702Z,18.10
2017-11-15T02:32:15.885Z,16.60
2017-11-15T02:37:56.405Z,15.27
2017-11-15T02:43:25.898Z,13.80
2017-11-15T02:48:54.830Z,14.80
2017-11-15T02:54:24.485Z,15.70
2017-11-15T02:59:53.474Z,16.20
2017-11-15T03:05:24.563Z,15.37
2017-11-15T03:10:54.390Z,15.73
2017-11-15T03:22:26.060Z,14.63
2017-11-15T03:27:54.977Z,16.07
2017-11-15T03:33:23.212Z,15.43
2017-11-15T03:39:02.342Z,17.60
2017-11-15T03:44:30.519Z,13.80
2017-11-15T03:49:59.453Z,16.50
2017-11-15T03:55:35.325Z,14.30
2017-11-15T04:01:08.506Z,13.70
2017-11-15T04:06:37.517Z,14.47
2017-11-15T04:12:05.659Z,14.50
2017-11-15T04:17:34.593Z,15.03
2017-11-15T04:23:12.178Z,15.57
2017-11-15T04:28:41.394Z,14.80
2017-11-15T04:34:09.545Z,14.47
2017-11-15T04:39:37.712Z,15.33
2017-11-15T04:45:06.627Z,13.57
2017-11-15T04:50:34.790Z,15.93
2017-11-15T04:56:07.429Z,14.90
2017-11-15T05:01:35.629Z,14.20
2017-11-15T05:07:03.798Z,13.73
2017-11-15T05:12:32.864Z,14.80
2017-11-15T05:18:01.903Z,14.70
2017-11-15T05:23:31.180Z,13.17
2017-11-15T05:29:00.204Z,12.77
2017-11-15T05:34:31.492Z,13.80
2017-11-15T05:39:59.650Z,13.17
2017-11-15T05:45:27.854Z,12.50
2017-11-15T05:50:56.851Z,14.10
2017-11-15T05:56:25.041Z,14.90
2017-11-15T06:01:53.212Z,19.15
2017-11-15T06:07:21.392Z,13.27
2017-11-15T06:12:49.548Z,14.30
2017-11-15T06:18:17.776Z,12.30
2017-11-15T06:23:45.855Z,13.07
2017-11-15T06:29:14.858Z,13.10
2017-11-15T06:34:42.914Z,13.17
2017-11-15T06:40:11.067Z,13.40
2017-11-15T06:45:39.217Z,13.70
2017-11-15T06:51:08.129Z,14.30
2017-11-15T06:56:36.281Z,14.27
2017-11-15T07:02:05.201Z,14.73
2017-11-15T07:07:33.356Z,14.13
2017-11-15T07:13:01.510Z,14.77
2017-11-15T07:18:29.643Z,15.53
2017-11-15T07:23:57.859Z,16.00
2017-11-15T07:29:26.029Z,16.10
2017-11-15T07:34:54.172Z,15.33
2017-11-15T07:40:22.345Z,15.50
2017-11-15T07:45:50.496Z,15.23
2017-11-15T07:51:18.637Z,14.90
2017-11-15T07:56:46.782Z,14.23
2017-11-15T08:02:14.933Z,15.70
2017-11-15T08:07:43.848Z,15.83
2017-11-15T08:13:11.991Z,15.37
2017-11-15T08:18:40.889Z,18.07
2017-11-15T08:24:09.023Z,17.57
2017-11-15T08:29:37.177Z,16.67
2017-11-15T08:35:06.082Z,19.63
2017-11-15T08:40:34.223Z,16.63
2017-11-15T08:46:03.144Z,17.07
2017-11-15T08:51:31.287Z,15.37
2017-11-15T08:56:59.424Z,15.30
2017-11-15T09:02:27.584Z,12.87
2017-11-15T09:07:55.823Z,15.27
2017-11-15T09:13:23.965Z,16.57
2017-11-15T09:18:52.125Z,16.37
2017-11-15T09:24:20.274Z,15.67
2017-11-15T09:29:48.408Z,18.30
2017-11-15T09:35:18.480Z,13.67
2017-11-15T09:40:47.391Z,14.47
2017-11-15T09:46:15.824Z,14.13
2017-11-15T09:51:44.922Z,14.30
2017-11-15T09:57:13.343Z,14.63
2017-11-15T10:02:42.260Z,13.73
2017-11-15T10:08:15.585Z,14.80
2017-11-15T10:13:43.722Z,13.53
2017-11-15T10:19:11.883Z,12.33
2017-11-15T10:24:40.056Z,13.37
2017-11-15T10:30:12.463Z,11.97
2017-11-15T10:35:40.618Z,13.40
2017-11-15T10:41:09.542Z,11.10
2017-11-15T10:46:37.710Z,11.60
2017-11-15T10:52:05.879Z,11.77
2017-11-15T10:57:34.793Z,10.60
2017-11-15T11:03:02.941Z,12.50
2017-11-15T11:08:31.081Z,11.80
2017-11-15T11:14:01.220Z,10.90
2017-11-15T11:19:29.457Z,12.20
2017-11-15T11:24:57.625Z,11.70
2017-11-15T11:30:25.818Z,11.43
2017-11-15T11:35:53.980Z,11.33
2017-11-15T11:41:22.124Z,11.17
2017-11-15T11:46:51.083Z,11.03
2017-11-15T11:52:19.372Z,11.63
2017-11-15T11:57:48.349Z,11.50
2017-11-15T12:03:16.509Z,10.70
2017-11-15T12:08:45.675Z,10.20
2017-11-15T12:14:17.696Z,10.03
2017-11-15T12:19:49.002Z,12.07
2017-11-15T12:25:17.176Z,9.30
2017-11-15T12:30:45.383Z,10.17
2017-11-15T12:36:13.543Z,10.53
2017-11-15T12:41:42.458Z,9.90
2017-11-15T12:47:10.617Z,11.37
2017-11-15T12:52:38.754Z,11.27
2017-11-15T12:58:06.888Z,12.97
2017-11-15T13:03:35.042Z,12.50
2017-11-15T13:09:06.101Z,13.83
2017-11-15T13:14:34.254Z,14.20
2017-11-15T13:20:02.401Z,14.40
2017-11-15T13:25:30.574Z,11.33
2017-11-15T13:30:58.729Z,14.53
2017-11-15T13:36:26.902Z,15.10
2017-11-15T13:41:55.056Z,14.67
2017-11-15T13:47:23.977Z,15.77
2017-11-15T13:52:52.123Z,17.63
2017-11-15T13:58:20.309Z,20.33
2017-11-15T14:03:48.456Z,19.50
2017-11-15T14:09:17.373Z,20.93
2017-11-15T14:14:45.520Z,21.90
2017-11-15T14:20:14.419Z,20.07
2017-11-15T14:25:42.566Z,21.30
2017-11-15T14:31:11.474Z,20.70
2017-11-15T14:36:39.604Z,21.50
2017-11-15T14:42:07.763Z,24.70
2017-11-15T14:47:35.905Z,19.63
2017-11-15T14:53:04.038Z,21.47
2017-11-15T14:58:32.187Z,22.00
2017-11-15T15:04:00.353Z,21.63
2017-11-15T15:09:28.513Z,22.17
2017-11-15T15:14:56.680Z,23.10
2017-11-15T15:20:24.816Z,20.57
2017-11-15T15:25:52.975Z,20.60
2017-11-15T15:31:21.930Z,23.30
2017-11-15T15:36:50.242Z,20.90
2017-11-15T15:42:20.385Z,20.43
2017-11-15T15:47:48.561Z,22.37
2017-11-15T15:53:16.749Z,18.30
2017-11-15T15:58:44.902Z,20.47
2017-11-15T16:04:13.046Z,20.37
2017-11-15T16:09:41.203Z,16.77
2017-11-15T16:15:09.412Z,18.60
2017-11-15T16:20:37.578Z,18.00
2017-11-15T16:26:06.497Z,17.90
2017-11-15T16:31:35.413Z,17.77
2017-11-15T16:37:03.560Z,17.50
2017-11-15T16:42:31.728Z,18.43
2017-11-15T16:48:00.643Z,19.30
2017-11-15T16:53:28.798Z,18.97
2017-11-15T16:58:56.943Z,19.30
2017-11-15T17:04:25.115Z,20.70
2017-11-15T17:09:53.288Z,23.67
2017-11-15T17:15:22.217Z,23.97
2017-11-15T17:20:50.367Z,24.73
2017-11-15T17:26:19.268Z,22.53
2017-11-15T17:31:47.416Z,26.93
2017-11-15T17:37:16.328Z,24.50
2017-11-15T17:42:44.467Z,24.63
2017-11-15T17:48:13.456Z,22.50
2017-11-15T17:53:42.363Z,22.77
2017-11-15T17:59:11.287Z,25.23
2017-11-15T18:04:40.187Z,22.10
2017-11-15T18:10:08.340Z,19.73
2017-11-15T18:15:37.240Z,19.27
2017-11-15T18:21:05.392Z,19.67
2017-11-15T18:26:33.553Z,17.97
2017-11-15T18:32:01.817Z,18.17
2017-11-15T18:37:29.973Z,19.23
2017-11-15T18:42:58.139Z,19.27
2017-11-15T18:48:26.289Z,17.87
2017-11-15T18:53:54.449Z,17.30
2017-11-15T18:59:23.586Z,18.37
2017-11-15T19:04:51.725Z,18.60
2017-11-15T19:10:19.876Z,20.67
2017-11-15T19:15:49.153Z,20.17
2017-11-15T19:21:18.061Z,19.10
2017-11-15T19:26:46.230Z,20.07
2017-11-15T19:32:14.383Z,19.97
2017-11-15T19:37:42.545Z,18.17
2017-11-15T19:43:11.469Z,17.70
2017-11-15T19:48:45.822Z,16.40
2017-11-15T19:54:17.138Z,17.30
2017-11-15T19:59:46.063Z,16.77
2017-11-15T20:05:14.212Z,17.20
2017-11-15T20:10:43.145Z,18.80
2017-11-15T20:16:11.315Z,18.33
2017-11-15T20:21:41.465Z,20.00
2017-11-15T20:27:09.647Z,16.70
2017-11-15T20:32:38.560Z,17.63
2017-11-15T20:38:06.709Z,19.07
2017-11-15T20:43:39.937Z,20.00
2017-11-15T20:49:08.862Z,18.70
2017-11-15T20:54:37.008Z,16.83
2017-11-15T21:00:08.569Z,17.40
2017-11-15T21:05:36.891Z,18.00
2017-11-15T21:11:08.135Z,16.23
2017-11-15T21:16:36.310Z,16.40
2017-11-15T21:22:04.470Z,16.43
2017-11-15T21:27:59.168Z,18.10
2017-11-15T21:33:27.370Z,18.00
2017-11-15T21:38:56.513Z,17.23
2017-11-15T21:44:24.710Z,20.73
2017-11-15T21:49:52.854Z,18.37
2017-11-15T21:55:21.016Z,18.07
2017-11-15T22:00:49.938Z,17.07
2017-11-15T22:06:18.190Z,17.63
2017-11-15T22:11:46.520Z,17.70
2017-11-15T22:17:23.295Z,19.17
2017-11-15T22:22:51.503Z,21.60
2017-11-15T22:28:19.720Z,19.80
2017-11-15T22:33:47.892Z,18.80
2017-11-15T22:39:16.200Z,17.63
2017-11-15T22:44:44.363Z,20.17
2017-11-15T22:50:12.535Z,22.17
2017-11-15T22:55:41.595Z,21.33
2017-11-15T23:01:14.544Z,19.50
2017-11-15T23:06:42.858Z,23.43
2017-11-15T23:12:22.558Z,21.40
2017-11-15T23:17:50.711Z,21.60
2017-11-15T23:23:18.859Z,20.27
2017-11-15T23:28:47.014Z,19.47
2017-11-15T23:34:15.972Z,15.53
2017-11-15T23:39:44.517Z,21.50
2017-11-15T23:45:18.941Z,19.80
2017-11-15T23:50:47.198Z,21.23
2017-11-15T23:56:20.601Z,21.50
